Time;durP1;ratioP1;P1;durP2;ratioP2;P2;SDS_P1;SDS_P2;PMS_P1;PMS_P2;Temp;Humidity;BMP_temperature;BMP_pressure;BME280_temperature;BME280_humidity;BME280_pressure;Samples;Min_cycle;Max_cycle;Signal;HPM_P1;HPM_P2
2021/10/17 00:02:15;;;;;;;14.73;6.20;;;10.30;93.20;;;;;;5052678;28;20028;-52
2021/10/17 00:04:40;;;;;;;14.38;6.43;;;10.30;93.40;;;;;;5053376;28;20090;-54
2021/10/17 00:07:09;;;;;;;12.35;5.53;;;10.30;93.70;;;;;;5052257;28;20098;-51
2021/10/17 00:09:37;;;;;;;13.13;6.40;;;10.20;93.80;;;;;;5051804;28;20080;-51
2021/10/17 00:12:03;;;;;;;17.42;6.63;;;10.20;94.00;;;;;;5053549;28;20044;-51
2021/10/17 00:14:29;;;;;;;14.60;6.68;;;10.20;94.20;;;;;;5053526;28;20437;-52
2021/10/17 00:16:54;;;;;;;15.50;6.30;;;10.20;94.20;;;;;;5045737;28;20035;-52
2021/10/17 00:19:21;;;;;;;12.63;5.88;;;10.10;94.10;;;;;;5053040;28;20080;-52
2021/10/17 00:21:46;;;;;;;14.98;6.53;;;10.20;94.30;;;;;;5052234;28;20132;-51
2021/10/17 00:24:12;;;;;;;15.95;6.60;;;10.10;94.20;;;;;;5052599;28;20131;-50
2021/10/17 00:26:39;;;;;;;15.73;6.53;;;10.10;94.30;;;;;;5053252;28;20072;-53
2021/10/17 00:29:05;;;;;;;12.90;6.90;;;10.10;94.20;;;;;;5053085;28;20048;-50
2021/10/17 00:31:30;;;;;;;11.45;5.90;;;10.10;94.40;;;;;;5051164;28;20040;-54
2021/10/17 00:33:56;;;;;;;13.48;6.05;;;10.10;94.50;;;;;;5056513;28;20115;-51
2021/10/17 00:36:21;;;;;;;14.38;6.55;;;10.10;94.40;;;;;;5055424;28;20101;-54
2021/10/17 00:38:47;;;;;;;10.73;5.55;;;10.10;94.40;;;;;;5052955;28;20083;-51
2021/10/17 00:41:13;;;;;;;14.50;6.88;;;10.10;94.40;;;;;;5052790;28;20382;-53
2021/10/17 00:43:39;;;;;;;15.25;6.53;;;10.10;94.40;;;;;;5051740;28;20047;-52
2021/10/17 00:46:13;;;;;;;17.33;6.43;;;10.10;94.50;;;;;;5046315;28;20116;-53
2021/10/17 00:48:39;;;;;;;19.88;6.50;;;10.10;94.60;;;;;;5049873;28;20037;-53
2021/10/17 00:51:04;;;;;;;10.75;6.15;;;10.10;94.70;;;;;;5051034;28;20059;-53
2021/10/17 00:53:30;;;;;;;13.23;5.97;;;10.10;94.80;;;;;;5051264;28;20045;-52
2021/10/17 00:55:55;;;;;;;13.73;6.15;;;10.10;94.90;;;;;;5051990;28;20033;-51
2021/10/17 00:58:21;;;;;;;14.10;6.30;;;10.10;94.90;;;;;;5052668;28;20033;-53
2021/10/17 01:00:47;;;;;;;15.43;6.78;;;10.00;95.10;;;;;;5052456;28;20051;-53
2021/10/17 01:03:12;;;;;;;17.77;7.45;;;10.10;95.20;;;;;;5052605;28;20043;-54
2021/10/17 01:05:38;;;;;;;15.02;6.78;;;10.00;95.20;;;;;;5047489;28;20549;-51
2021/10/17 01:08:03;;;;;;;13.60;7.50;;;10.00;95.30;;;;;;5040788;28;20040;-53
2021/10/17 01:10:29;;;;;;;18.80;7.55;;;10.00;95.30;;;;;;5049665;28;20032;-53
2021/10/17 01:12:54;;;;;;;13.57;6.38;;;10.00;95.30;;;;;;5044730;28;20558;-52
2021/10/17 01:15:20;;;;;;;14.65;6.95;;;9.90;95.30;;;;;;5052151;28;20112;-51
2021/10/17 01:17:46;;;;;;;21.30;7.22;;;9.90;95.40;;;;;;5050382;28;20151;-53
2021/10/17 01:20:12;;;;;;;21.88;7.60;;;9.90;95.50;;;;;;5052480;28;20156;-53
2021/10/17 01:22:39;;;;;;;15.00;7.10;;;9.90;95.80;;;;;;5049972;28;20073;-50
2021/10/17 01:25:05;;;;;;;16.60;6.97;;;9.90;95.80;;;;;;5048387;28;20077;-51
2021/10/17 01:27:31;;;;;;;12.90;7.00;;;9.80;96.30;;;;;;5048234;28;20401;-51
2021/10/17 01:29:56;;;;;;;14.65;7.07;;;9.80;96.50;;;;;;5051404;28;20035;-53
2021/10/17 01:32:22;;;;;;;18.23;6.88;;;9.80;96.70;;;;;;5052191;28;20071;-52
2021/10/17 01:34:48;;;;;;;14.48;7.30;;;9.80;96.90;;;;;;5051254;28;20444;-50
2021/10/17 01:37:14;;;;;;;13.57;6.90;;;9.80;96.90;;;;;;5052039;28;20040;-53
2021/10/17 01:39:39;;;;;;;16.55;7.40;;;9.80;97.20;;;;;;5051620;28;20044;-51
2021/10/17 01:42:05;;;;;;;16.15;7.32;;;9.80;97.00;;;;;;5044627;28;20478;-52
2021/10/17 01:44:33;;;;;;;15.48;7.43;;;9.80;97.30;;;;;;5047914;28;20567;-53
2021/10/17 01:47:00;;;;;;;21.15;7.47;;;9.80;97.50;;;;;;5042904;28;20037;-50
2021/10/17 01:49:26;;;;;;;15.40;7.18;;;9.70;97.30;;;;;;5051571;28;20037;-53
2021/10/17 01:51:52;;;;;;;15.82;7.15;;;9.80;97.40;;;;;;5049223;28;20087;-51
2021/10/17 01:54:18;;;;;;;17.02;7.90;;;9.80;97.40;;;;;;5048489;28;20446;-52
2021/10/17 01:56:43;;;;;;;16.75;8.00;;;9.80;97.70;;;;;;5050093;28;20083;-52
2021/10/17 01:59:09;;;;;;;21.35;8.48;;;9.80;98.10;;;;;;5050039;28;20041;-52
2021/10/17 02:01:35;;;;;;;21.08;8.60;;;9.80;98.20;;;;;;5046747;28;20116;-54
2021/10/17 02:04:02;;;;;;;16.15;7.68;;;9.70;98.30;;;;;;5043577;28;20040;-52
2021/10/17 02:06:28;;;;;;;19.48;7.72;;;9.70;98.60;;;;;;5047569;28;20033;-51
2021/10/17 02:08:54;;;;;;;17.83;7.88;;;9.70;98.80;;;;;;5043560;28;20072;-52
2021/10/17 02:11:20;;;;;;;17.75;7.40;;;9.70;99.30;;;;;;5047236;28;20559;-52
2021/10/17 02:13:45;;;;;;;17.85;7.85;;;9.70;99.60;;;;;;5050227;28;20041;-50
2021/10/17 02:16:11;;;;;;;18.52;7.88;;;9.60;99.50;;;;;;5049546;28;20032;-52
2021/10/17 02:18:36;;;;;;;19.98;8.20;;;9.60;99.60;;;;;;5046606;28;20076;-53
2021/10/17 02:21:03;;;;;;;17.77;8.23;;;9.60;99.60;;;;;;5048303;28;20052;-53
2021/10/17 02:23:29;;;;;;;16.45;7.38;;;9.60;99.60;;;;;;5046323;28;20586;-51
2021/10/17 02:25:54;;;;;;;10.48;6.97;;;9.60;99.50;;;;;;5049954;28;20041;-53
2021/10/17 02:28:20;;;;;;;17.27;8.23;;;9.60;99.20;;;;;;5050887;28;20074;-52
2021/10/17 02:30:45;;;;;;;16.85;6.95;;;9.60;99.00;;;;;;5050642;28;20041;-53
2021/10/17 02:33:11;;;;;;;23.08;7.78;;;9.60;99.00;;;;;;5050490;28;20041;-53
2021/10/17 02:35:37;;;;;;;19.48;8.43;;;9.60;99.00;;;;;;5050461;28;20115;-52
2021/10/17 02:38:03;;;;;;;16.75;8.10;;;9.60;99.00;;;;;;5050036;28;20040;-53
2021/10/17 02:40:29;;;;;;;14.48;7.97;;;9.60;99.00;;;;;;5049652;28;20470;-53
2021/10/17 02:42:54;;;;;;;18.80;8.05;;;9.60;98.90;;;;;;5049257;28;20075;-51
2021/10/17 02:45:20;;;;;;;16.05;8.40;;;9.60;98.90;;;;;;5050672;28;20497;-52
2021/10/17 02:47:46;;;;;;;18.70;8.15;;;9.60;98.90;;;;;;5048985;28;20560;-52
2021/10/17 02:50:11;;;;;;;15.10;7.95;;;9.60;99.00;;;;;;5027381;28;20037;-51
2021/10/17 02:52:37;;;;;;;15.20;7.60;;;9.60;99.70;;;;;;5048500;28;20044;-51
2021/10/17 02:55:03;;;;;;;15.02;8.57;;;9.60;99.60;;;;;;5042085;28;20056;-51
2021/10/17 02:57:28;;;;;;;14.10;8.05;;;9.60;99.70;;;;;;5050023;28;20403;-50
2021/10/17 02:59:54;;;;;;;18.10;8.38;;;9.50;99.90;;;;;;5046431;28;20037;-52
2021/10/17 03:02:19;;;;;;;16.65;8.50;;;9.50;99.80;;;;;;5050328;28;20116;-52
2021/10/17 03:04:45;;;;;;;17.70;9.48;;;9.50;99.90;;;;;;5050658;28;20040;-53
2021/10/17 03:07:10;;;;;;;18.30;8.88;;;9.50;99.90;;;;;;5049219;28;20052;-52
2021/10/17 03:09:36;;;;;;;21.80;9.70;;;9.50;99.90;;;;;;5050530;28;20086;-52
2021/10/17 03:12:01;;;;;;;22.17;9.00;;;9.50;99.90;;;;;;5050479;28;20147;-51
2021/10/17 03:14:27;;;;;;;20.65;8.60;;;9.50;99.90;;;;;;5053384;28;20428;-54
2021/10/17 03:16:52;;;;;;;22.45;9.00;;;9.40;99.90;;;;;;5054264;28;20036;-51
2021/10/17 03:19:18;;;;;;;18.20;8.68;;;9.40;99.90;;;;;;5054366;28;20555;-50
2021/10/17 03:21:45;;;;;;;18.38;9.75;;;9.40;99.90;;;;;;5055948;28;20120;-49
2021/10/17 03:24:10;;;;;;;14.23;8.10;;;9.40;99.90;;;;;;5054377;28;20041;-50
2021/10/17 03:26:36;;;;;;;18.27;8.55;;;9.40;99.90;;;;;;5054274;28;20537;-52
2021/10/17 03:29:02;;;;;;;12.75;8.15;;;9.40;99.90;;;;;;5054251;28;20048;-51
2021/10/17 03:31:27;;;;;;;20.15;8.70;;;9.40;99.90;;;;;;5053925;28;20036;-52
2021/10/17 03:33:53;;;;;;;17.25;8.38;;;9.40;99.90;;;;;;5053923;28;20045;-50
2021/10/17 03:36:18;;;;;;;17.98;9.30;;;9.40;99.90;;;;;;5051281;28;20029;-50
2021/10/17 03:38:44;;;;;;;22.77;9.25;;;9.40;99.90;;;;;;5050115;28;20041;-50
2021/10/17 03:41:12;;;;;;;21.65;9.10;;;9.40;99.90;;;;;;5049994;28;20047;-52
2021/10/17 03:43:39;;;;;;;18.08;8.88;;;9.40;99.90;;;;;;5052606;28;20501;-52
2021/10/17 03:46:04;;;;;;;19.80;8.70;;;9.40;99.90;;;;;;5051904;28;20090;-53
2021/10/17 03:48:30;;;;;;;22.15;9.07;;;9.40;99.90;;;;;;5052984;28;20473;-50
2021/10/17 03:50:55;;;;;;;19.00;8.30;;;9.50;99.90;;;;;;5053490;28;20423;-52
2021/10/17 03:53:21;;;;;;;20.20;9.18;;;9.50;99.90;;;;;;5054106;28;20045;-49
2021/10/17 03:55:46;;;;;;;16.98;8.20;;;9.50;99.90;;;;;;5051828;28;20386;-53
2021/10/17 03:58:12;;;;;;;15.50;8.82;;;9.50;99.90;;;;;;5049173;28;20037;-50
2021/10/17 04:00:37;;;;;;;16.70;8.15;;;9.50;99.70;;;;;;5053027;28;20052;-53
2021/10/17 04:03:03;;;;;;;22.10;8.60;;;9.50;99.80;;;;;;5051520;28;20052;-50
2021/10/17 04:05:28;;;;;;;21.80;9.32;;;9.50;99.70;;;;;;5047739;28;20037;-51
2021/10/17 04:07:54;;;;;;;18.10;8.45;;;9.50;99.80;;;;;;5052660;28;20507;-52
2021/10/17 04:10:19;;;;;;;18.40;8.70;;;9.50;99.40;;;;;;5052973;28;20039;-49
2021/10/17 04:12:45;;;;;;;15.60;8.30;;;9.50;99.40;;;;;;5053591;28;20478;-53
2021/10/17 04:15:11;;;;;;;20.23;9.27;;;9.50;99.50;;;;;;5053227;28;20091;-50
2021/10/17 04:17:37;;;;;;;19.33;8.93;;;9.50;99.20;;;;;;5047926;28;20033;-52
2021/10/17 04:20:07;;;;;;;21.60;8.35;;;9.60;98.80;;;;;;5052615;28;20118;-50
2021/10/17 04:22:33;;;;;;;21.33;9.18;;;9.60;98.60;;;;;;5045728;28;20088;-50
2021/10/17 04:24:59;;;;;;;17.20;8.60;;;9.60;98.60;;;;;;5045680;28;20040;-51
2021/10/17 04:27:24;;;;;;;16.67;8.90;;;9.50;98.60;;;;;;5053113;28;20513;-51
2021/10/17 04:29:50;;;;;;;17.70;8.73;;;9.50;98.70;;;;;;5051368;28;20072;-50
2021/10/17 04:32:15;;;;;;;19.25;9.02;;;9.50;98.70;;;;;;5053189;28;20044;-51
2021/10/17 04:34:41;;;;;;;15.18;9.15;;;9.50;98.80;;;;;;5052870;28;20044;-54
2021/10/17 04:37:07;;;;;;;16.48;8.88;;;9.50;98.90;;;;;;5047429;28;20120;-50
2021/10/17 04:39:34;;;;;;;18.98;8.43;;;9.50;98.70;;;;;;5052884;28;20374;-51
2021/10/17 04:42:01;;;;;;;18.80;9.55;;;9.40;98.90;;;;;;5053223;28;20117;-50
2021/10/17 04:44:26;;;;;;;17.23;8.52;;;9.40;99.30;;;;;;5045892;28;20045;-50
2021/10/17 04:46:52;;;;;;;16.00;8.93;;;9.40;99.10;;;;;;5052696;28;20485;-52
2021/10/17 04:49:17;;;;;;;20.65;8.85;;;9.50;98.90;;;;;;5052823;28;20086;-51
2021/10/17 04:51:43;;;;;;;18.40;8.95;;;9.40;98.90;;;;;;5052035;28;20029;-52
2021/10/17 04:54:09;;;;;;;16.50;9.30;;;9.40;99.00;;;;;;5050992;28;20037;-52
2021/10/17 04:56:35;;;;;;;16.48;9.10;;;9.40;99.10;;;;;;5052650;28;20056;-51
2021/10/17 04:59:00;;;;;;;19.45;8.80;;;9.40;99.00;;;;;;5049897;28;20029;-51
2021/10/17 05:01:27;;;;;;;23.55;8.68;;;9.40;99.10;;;;;;5052777;28;20123;-51
2021/10/17 05:03:53;;;;;;;16.67;8.48;;;9.40;99.10;;;;;;5048494;28;20051;-51
2021/10/17 05:06:19;;;;;;;16.05;9.18;;;9.40;99.10;;;;;;5049566;28;20520;-50
2021/10/17 05:08:45;;;;;;;21.80;8.98;;;9.40;99.00;;;;;;5049226;28;20045;-49
2021/10/17 05:11:10;;;;;;;21.55;8.65;;;9.40;98.80;;;;;;5047281;28;20522;-53
2021/10/17 05:13:36;;;;;;;18.10;8.90;;;9.40;98.80;;;;;;5050428;28;20397;-50
2021/10/17 05:16:02;;;;;;;17.25;8.23;;;9.40;98.70;;;;;;5049220;28;20091;-50
2021/10/17 05:18:27;;;;;;;21.33;8.95;;;9.40;98.50;;;;;;5052141;28;20041;-51
2021/10/17 05:20:53;;;;;;;18.80;8.80;;;9.50;98.30;;;;;;5048359;28;20411;-50
2021/10/17 05:23:18;;;;;;;14.88;8.20;;;9.40;98.40;;;;;;5049819;28;20151;-50
2021/10/17 05:25:44;;;;;;;19.50;8.25;;;9.50;98.20;;;;;;5052097;28;20079;-51
2021/10/17 05:28:10;;;;;;;17.05;8.32;;;9.40;98.20;;;;;;5051841;28;20059;-52
2021/10/17 05:30:36;;;;;;;18.95;8.75;;;9.40;98.20;;;;;;5050696;28;20033;-53
2021/10/17 05:33:03;;;;;;;22.83;8.63;;;9.40;98.10;;;;;;5047061;28;20033;-52
2021/10/17 05:35:29;;;;;;;19.00;8.15;;;9.40;97.90;;;;;;5047767;28;20090;-51
2021/10/17 05:37:55;;;;;;;19.73;8.45;;;9.40;97.90;;;;;;5051383;28;20056;-50
2021/10/17 05:40:21;;;;;;;19.23;8.90;;;9.40;98.00;;;;;;5052849;28;20060;-50
2021/10/17 05:42:46;;;;;;;19.10;8.65;;;9.40;98.00;;;;;;5051548;28;20091;-51
2021/10/17 05:45:12;;;;;;;21.48;9.07;;;9.40;97.90;;;;;;5051974;28;20039;-53
2021/10/17 05:47:38;;;;;;;18.05;8.52;;;9.50;97.90;;;;;;5051269;28;20444;-52
2021/10/17 05:50:04;;;;;;;17.80;8.23;;;9.40;98.00;;;;;;5051568;28;20029;-50
2021/10/17 05:52:30;;;;;;;19.98;8.77;;;9.40;98.00;;;;;;5052010;28;20037;-51
2021/10/17 05:54:56;;;;;;;17.20;8.18;;;9.40;98.00;;;;;;5045019;28;20040;-49
2021/10/17 05:57:21;;;;;;;20.23;8.77;;;9.40;98.00;;;;;;5051112;28;20556;-49
2021/10/17 05:59:47;;;;;;;20.52;9.15;;;9.40;97.80;;;;;;5047056;28;20041;-49
2021/10/17 06:02:12;;;;;;;18.45;8.90;;;9.40;97.70;;;;;;5050855;28;20021;-50
2021/10/17 06:04:38;;;;;;;19.77;8.55;;;9.40;97.60;;;;;;5051544;28;20029;-50
2021/10/17 06:07:04;;;;;;;17.80;8.68;;;9.40;97.60;;;;;;5048218;28;20505;-49
2021/10/17 06:09:34;;;;;;;18.90;8.57;;;9.40;97.60;;;;;;5044897;28;20087;-53
2021/10/17 06:12:01;;;;;;;17.33;8.50;;;9.40;97.60;;;;;;5047800;28;20133;-51
2021/10/17 06:14:27;;;;;;;18.33;8.32;;;9.40;97.60;;;;;;5048999;28;20048;-53
2021/10/17 06:16:52;;;;;;;16.48;9.27;;;9.40;97.70;;;;;;5050338;28;20029;-56
2021/10/17 06:19:18;;;;;;;16.15;8.40;;;9.40;97.80;;;;;;5050771;28;20033;-56
2021/10/17 06:21:43;;;;;;;15.98;8.68;;;9.40;97.90;;;;;;5051487;28;20037;-56
2021/10/17 06:24:10;;;;;;;20.98;8.70;;;9.40;97.90;;;;;;5048051;28;20099;-56
2021/10/17 06:26:35;;;;;;;18.38;9.02;;;9.40;98.00;;;;;;5049225;28;20120;-56
2021/10/17 06:29:02;;;;;;;16.90;7.78;;;9.50;98.00;;;;;;5050090;28;20125;-55
2021/10/17 06:31:27;;;;;;;16.77;8.05;;;9.50;98.10;;;;;;5041572;28;20045;-56
2021/10/17 06:33:53;;;;;;;15.18;7.85;;;9.40;98.10;;;;;;5050850;28;20115;-55
2021/10/17 06:36:18;;;;;;;19.10;8.20;;;9.40;97.90;;;;;;5050275;28;20029;-56
2021/10/17 06:39:08;;;;;;;17.95;9.05;;;9.50;98.00;;;;;;5065177;28;20016;-54
2021/10/17 06:41:34;;;;;;;17.67;8.73;;;9.40;98.00;;;;;;5039298;28;20040;-57
2021/10/17 06:44:00;;;;;;;21.15;8.57;;;9.40;98.10;;;;;;5045793;28;20094;-56
2021/10/17 06:46:26;;;;;;;15.23;8.40;;;9.40;98.10;;;;;;5047910;28;20131;-54
2021/10/17 06:48:52;;;;;;;22.85;8.90;;;9.40;98.10;;;;;;5050849;28;20128;-55
2021/10/17 06:51:17;;;;;;;17.60;8.05;;;9.50;98.20;;;;;;5049843;28;20068;-54
2021/10/17 06:53:43;;;;;;;24.80;9.20;;;9.50;98.10;;;;;;5050559;28;20094;-55
2021/10/17 06:56:08;;;;;;;16.45;8.20;;;9.50;98.10;;;;;;5048050;28;20108;-55
2021/10/17 06:59:48;;;;;;;19.27;8.20;;;9.50;98.10;;;;;;5048899;28;20045;-55
2021/10/17 07:20:00;;;;;;;19.98;7.85;;;9.80;97.30;;;;;;5375832;22;20046;-53
2021/10/17 07:22:26;;;;;;;18.73;8.30;;;9.80;97.10;;;;;;5008044;28;20088;-53
2021/10/17 07:24:51;;;;;;;19.60;7.68;;;9.80;97.00;;;;;;5001573;28;20033;-53
2021/10/17 07:27:17;;;;;;;18.63;7.60;;;9.80;96.90;;;;;;4991173;28;20096;-51
2021/10/17 07:29:42;;;;;;;22.85;7.93;;;9.80;96.90;;;;;;5009146;28;20056;-53
2021/10/17 07:35:49;;;;;;;19.85;8.13;;;9.90;96.70;;;;;;5309843;22;20052;-54
2021/10/17 07:38:15;;;;;;;16.55;7.40;;;9.90;96.50;;;;;;5031441;28;20045;-55
2021/10/17 07:40:40;;;;;;;17.45;7.25;;;9.90;96.40;;;;;;5027809;28;20041;-53
2021/10/17 07:43:06;;;;;;;16.55;8.38;;;10.00;96.30;;;;;;5028620;28;20080;-53
2021/10/17 07:45:32;;;;;;;18.75;7.75;;;10.00;96.20;;;;;;5013015;28;20045;-52
2021/10/17 07:47:58;;;;;;;15.93;7.13;;;10.00;96.10;;;;;;5030206;28;20038;-54
2021/10/17 07:50:24;;;;;;;13.88;7.65;;;10.00;95.90;;;;;;5028295;28;20115;-52
2021/10/17 07:52:50;;;;;;;17.05;7.95;;;10.00;95.90;;;;;;5030193;28;20047;-55
2021/10/17 07:55:16;;;;;;;18.00;7.20;;;10.00;95.80;;;;;;5027766;28;20108;-54
2021/10/17 07:57:59;;;;;;;18.40;8.30;;;10.00;95.70;;;;;;5032480;28;20045;-54
2021/10/17 08:00:29;;;;;;;17.75;8.63;;;10.00;95.70;;;;;;5030563;28;20044;-54
2021/10/17 08:02:56;;;;;;;16.88;7.38;;;10.10;95.60;;;;;;5032606;28;20533;-55
2021/10/17 08:05:22;;;;;;;18.33;7.57;;;10.10;95.70;;;;;;5032591;28;20071;-54
2021/10/17 08:07:49;;;;;;;20.52;8.50;;;10.00;95.90;;;;;;5033723;28;20049;-54
2021/10/17 08:10:15;;;;;;;15.23;8.05;;;10.10;95.80;;;;;;5033754;28;20041;-54
2021/10/17 08:12:40;;;;;;;16.15;7.90;;;10.10;95.90;;;;;;5036506;28;20056;-54
2021/10/17 08:15:08;;;;;;;16.35;8.13;;;10.10;95.90;;;;;;5030622;28;20070;-54
2021/10/17 08:17:35;;;;;;;17.55;8.05;;;10.20;95.90;;;;;;5024909;28;20063;-52
2021/10/17 08:20:03;;;;;;;19.95;7.85;;;10.20;95.70;;;;;;5025834;28;20041;-52
2021/10/17 08:22:29;;;;;;;16.67;8.10;;;10.30;95.80;;;;;;5021245;28;20042;-54
2021/10/17 08:24:54;;;;;;;18.15;8.10;;;10.30;95.70;;;;;;5028897;28;20033;-53
2021/10/17 08:27:20;;;;;;;17.52;7.65;;;10.40;95.60;;;;;;5021912;28;20405;-52
2021/10/17 08:29:46;;;;;;;17.45;7.78;;;10.50;95.60;;;;;;5026315;28;20034;-54
2021/10/17 08:32:11;;;;;;;24.13;9.20;;;10.50;95.30;;;;;;5026972;28;20068;-55
2021/10/17 08:34:38;;;;;;;16.95;7.60;;;10.50;95.10;;;;;;5023077;28;20077;-54
2021/10/17 08:37:04;;;;;;;18.05;7.80;;;10.60;95.00;;;;;;5014316;28;20099;-54
2021/10/17 08:39:30;;;;;;;16.13;8.30;;;10.60;95.00;;;;;;5018699;28;20506;-52
2021/10/17 08:41:55;;;;;;;19.92;9.48;;;10.60;94.80;;;;;;5017936;28;20116;-52
2021/10/17 08:44:21;;;;;;;22.02;8.90;;;10.60;94.80;;;;;;5021725;28;20092;-51
2021/10/17 08:46:49;;;;;;;17.98;8.30;;;10.70;94.70;;;;;;5023959;28;20041;-51
2021/10/17 08:49:18;;;;;;;19.60;8.25;;;10.70;94.70;;;;;;5028563;28;20041;-48
2021/10/17 08:51:44;;;;;;;22.33;8.23;;;10.70;94.60;;;;;;5019132;28;20132;-51
2021/10/17 08:54:09;;;;;;;20.80;10.90;;;10.70;94.60;;;;;;5018417;28;20121;-51
2021/10/17 08:56:35;;;;;;;25.73;8.82;;;10.80;94.40;;;;;;5024744;28;20119;-50
2021/10/17 08:59:00;;;;;;;15.88;8.40;;;10.80;94.50;;;;;;5019135;28;20040;-50
2021/10/17 09:01:33;;;;;;;18.42;9.15;;;10.80;94.40;;;;;;5020438;28;20045;-50
2021/10/17 09:03:59;;;;;;;19.42;8.45;;;10.80;94.20;;;;;;5020330;28;20116;-51
2021/10/17 09:06:29;;;;;;;18.08;8.45;;;10.90;94.20;;;;;;5023685;28;20663;-51
2021/10/17 09:09:18;;;;;;;17.80;8.50;;;10.90;94.20;;;;;;5023681;28;20436;-50
2021/10/17 09:11:49;;;;;;;18.02;8.25;;;10.90;94.00;;;;;;5021081;28;20521;-53
2021/10/17 09:14:27;;;;;;;18.88;8.25;;;11.00;94.10;;;;;;5020531;28;20037;-52
2021/10/17 09:16:57;;;;;;;20.75;8.45;;;11.00;93.90;;;;;;5019140;28;20064;-50
2021/10/17 09:19:26;;;;;;;17.70;8.70;;;11.10;93.80;;;;;;5031094;28;20041;-50
2021/10/17 09:21:53;;;;;;;16.70;8.77;;;11.10;93.60;;;;;;5028580;28;20113;-53
2021/10/17 09:24:31;;;;;;;25.80;8.57;;;11.20;93.70;;;;;;5026559;28;20041;-51
2021/10/17 09:27:17;;;;;;;20.20;8.65;;;11.20;93.50;;;;;;5031990;28;20037;-52
2021/10/17 09:29:45;;;;;;;21.02;9.05;;;11.20;93.40;;;;;;5031795;28;20048;-51
2021/10/17 09:32:13;;;;;;;19.77;7.75;;;11.20;93.40;;;;;;5023661;28;20399;-48
2021/10/17 09:34:39;;;;;;;16.27;8.52;;;11.20;93.20;;;;;;5020780;28;20037;-50
2021/10/17 09:37:10;;;;;;;19.10;8.27;;;11.20;93.20;;;;;;5017160;28;20115;-51
2021/10/17 09:39:40;;;;;;;17.88;8.13;;;11.30;93.40;;;;;;5019307;28;20034;-49
2021/10/17 09:42:07;;;;;;;19.45;7.63;;;11.30;93.20;;;;;;5018966;28;20514;-50
2021/10/17 09:44:40;;;;;;;17.48;7.50;;;11.30;93.20;;;;;;5015206;28;20117;-49
2021/10/17 09:47:06;;;;;;;18.90;8.45;;;11.30;93.10;;;;;;5016360;28;20143;-52
2021/10/17 09:49:32;;;;;;;17.10;8.35;;;11.30;92.80;;;;;;5018649;28;20149;-53
2021/10/17 09:52:09;;;;;;;18.27;7.93;;;11.30;92.80;;;;;;5017456;28;20440;-49
2021/10/17 09:54:36;;;;;;;19.42;8.25;;;11.30;92.80;;;;;;5021932;28;20502;-50
2021/10/17 09:57:07;;;;;;;18.92;8.43;;;11.30;92.70;;;;;;5015564;28;20038;-52
2021/10/17 09:59:33;;;;;;;18.52;8.05;;;11.30;92.70;;;;;;5022469;28;20037;-51
2021/10/17 10:01:59;;;;;;;20.13;8.20;;;11.30;92.70;;;;;;5016920;28;20033;-51
2021/10/17 10:04:25;;;;;;;17.40;7.82;;;11.30;92.90;;;;;;5019953;28;20524;-51
2021/10/17 10:06:52;;;;;;;16.75;7.55;;;11.30;92.70;;;;;;5021779;28;20332;-51
2021/10/17 10:09:21;;;;;;;22.05;9.45;;;11.40;92.80;;;;;;5019749;28;20041;-50
2021/10/17 10:11:47;;;;;;;16.10;8.00;;;11.40;93.00;;;;;;5018193;28;20520;-50
2021/10/17 10:14:14;;;;;;;15.00;7.90;;;11.40;92.90;;;;;;5017108;28;20312;-49
2021/10/17 10:16:40;;;;;;;14.93;7.70;;;11.40;92.90;;;;;;5017521;28;20041;-50
2021/10/17 10:19:08;;;;;;;15.77;7.82;;;11.50;92.80;;;;;;5023474;28;20034;-53
2021/10/17 10:21:38;;;;;;;17.92;7.25;;;11.50;92.60;;;;;;5016483;28;20289;-53
2021/10/17 10:24:06;;;;;;;14.18;7.10;;;11.60;92.60;;;;;;5021507;28;20329;-52
2021/10/17 10:26:33;;;;;;;15.68;6.35;;;11.60;92.60;;;;;;5014381;28;20391;-51
2021/10/17 10:28:59;;;;;;;16.80;7.18;;;11.60;92.30;;;;;;5028759;28;20578;-51
2021/10/17 10:31:40;;;;;;;18.88;7.22;;;11.70;92.10;;;;;;5030467;28;20033;-51
2021/10/17 10:34:12;;;;;;;18.90;7.22;;;11.70;92.00;;;;;;5024001;28;20595;-48
2021/10/17 10:36:47;;;;;;;12.80;6.80;;;11.80;91.90;;;;;;5024652;28;20118;-48
2021/10/17 10:39:18;;;;;;;12.50;6.63;;;11.80;91.70;;;;;;5008200;28;20634;-51
2021/10/17 10:41:51;;;;;;;18.15;7.90;;;11.90;91.80;;;;;;5024664;28;20102;-49
2021/10/17 10:44:32;;;;;;;16.27;6.40;;;11.90;91.60;;;;;;5016483;28;20037;-50
2021/10/17 10:47:19;;;;;;;15.63;6.93;;;12.00;91.60;;;;;;5022081;28;20123;-51
2021/10/17 10:49:49;;;;;;;14.13;6.80;;;12.00;91.50;;;;;;5023198;28;20430;-51
2021/10/17 10:52:23;;;;;;;15.55;7.50;;;12.10;91.10;;;;;;5023538;28;20041;-52
2021/10/17 10:54:50;;;;;;;17.50;6.70;;;12.20;91.00;;;;;;5025766;28;20375;-51
2021/10/17 10:57:21;;;;;;;14.35;6.40;;;12.20;91.00;;;;;;5026186;28;20508;-49
2021/10/17 10:59:59;;;;;;;15.75;6.82;;;12.30;91.00;;;;;;5024710;28;20034;-52
2021/10/17 11:02:25;;;;;;;17.77;6.93;;;12.40;90.70;;;;;;5020031;28;20034;-50
2021/10/17 11:04:51;;;;;;;13.95;6.40;;;12.40;90.70;;;;;;5024920;28;20501;-52
2021/10/17 11:07:34;;;;;;;14.82;6.45;;;12.50;90.50;;;;;;5025482;28;20044;-49
2021/10/17 11:10:21;;;;;;;14.05;7.28;;;12.50;89.90;;;;;;5019566;28;20022;-51
2021/10/17 11:12:55;;;;;;;22.08;7.18;;;12.60;89.80;;;;;;5020105;28;20054;-50
2021/10/17 11:15:27;;;;;;;15.85;7.22;;;12.60;89.10;;;;;;5023727;28;20095;-48
2021/10/17 11:17:57;;;;;;;16.58;8.02;;;12.60;89.40;;;;;;5021509;28;20087;-50
2021/10/17 11:20:26;;;;;;;15.32;7.68;;;12.60;89.60;;;;;;5024477;28;20065;-52
2021/10/17 11:22:56;;;;;;;17.23;6.55;;;12.60;89.80;;;;;;5001406;28;20124;-51
2021/10/17 11:25:24;;;;;;;16.70;6.53;;;12.60;90.00;;;;;;5027458;28;20045;-52
2021/10/17 11:27:50;;;;;;;15.55;6.35;;;12.60;90.10;;;;;;5026197;28;20037;-53
2021/10/17 11:30:33;;;;;;;15.52;7.00;;;12.70;90.00;;;;;;5024219;28;20033;-50
2021/10/17 11:33:04;;;;;;;14.90;6.50;;;12.70;90.00;;;;;;5027723;28;20052;-51
2021/10/17 11:35:34;;;;;;;12.75;6.00;;;12.70;89.80;;;;;;5024992;28;20046;-49
2021/10/17 11:38:02;;;;;;;11.40;5.97;;;12.70;90.10;;;;;;5029362;28;20041;-53
2021/10/17 11:40:29;;;;;;;17.15;6.80;;;12.80;90.20;;;;;;5028404;28;20041;-51
2021/10/17 11:42:58;;;;;;;13.55;6.53;;;12.80;90.00;;;;;;5027142;28;20069;-50
2021/10/17 11:45:32;;;;;;;14.68;6.78;;;12.80;89.50;;;;;;5030161;28;20095;-53
2021/10/17 11:48:01;;;;;;;15.23;6.63;;;12.80;89.60;;;;;;5023933;28;20313;-51
2021/10/17 11:50:32;;;;;;;12.07;6.18;;;12.90;90.10;;;;;;5026632;28;20084;-53
2021/10/17 11:53:00;;;;;;;14.98;6.10;;;12.90;90.10;;;;;;5024029;28;20056;-48
2021/10/17 11:55:43;;;;;;;13.25;6.15;;;12.90;90.10;;;;;;5028090;28;20053;-50
2021/10/17 11:58:15;;;;;;;17.02;6.43;;;12.90;90.00;;;;;;5024809;28;20056;-51
2021/10/17 12:00:41;;;;;;;11.77;6.10;;;12.90;90.10;;;;;;5030432;28;20075;-51
2021/10/17 12:03:07;;;;;;;16.30;6.35;;;12.90;90.00;;;;;;5026542;28;20284;-54
2021/10/17 12:05:32;;;;;;;13.52;6.43;;;12.90;89.70;;;;;;5026727;28;20033;-50
2021/10/17 12:07:58;;;;;;;12.30;6.28;;;12.90;89.70;;;;;;5027604;28;20043;-51
2021/10/17 12:10:27;;;;;;;10.30;6.00;;;12.90;89.60;;;;;;5023203;28;20128;-49
2021/10/17 12:13:01;;;;;;;14.75;5.88;;;13.00;89.90;;;;;;5033126;28;20494;-52
2021/10/17 12:15:29;;;;;;;14.32;6.30;;;13.00;90.00;;;;;;5025103;28;20041;-51
2021/10/17 12:18:00;;;;;;;15.27;8.55;;;13.00;90.00;;;;;;5029631;28;20045;-47
2021/10/17 12:20:26;;;;;;;47.17;27.05;;;13.00;89.50;;;;;;5030851;28;20540;-51
2021/10/17 12:22:53;;;;;;;18.05;6.20;;;13.00;89.50;;;;;;5032894;28;20041;-50
2021/10/17 12:25:19;;;;;;;17.70;6.55;;;12.90;89.50;;;;;;5033112;28;20044;-52
2021/10/17 12:27:46;;;;;;;17.33;5.28;;;13.00;89.30;;;;;;5027184;28;20041;-54
2021/10/17 12:30:19;;;;;;;14.38;6.07;;;13.00;89.00;;;;;;5026323;28;20037;-50
2021/10/17 12:32:53;;;;;;;14.18;6.07;;;13.00;88.40;;;;;;5018441;28;20441;-51
2021/10/17 12:35:36;;;;;;;16.17;6.18;;;13.00;88.30;;;;;;5025481;28;20178;-51
2021/10/17 12:38:08;;;;;;;14.70;5.65;;;13.00;88.40;;;;;;5021597;28;20041;-53
2021/10/17 12:40:50;;;;;;;11.32;5.63;;;13.00;88.90;;;;;;5030481;28;20041;-52
2021/10/17 12:43:25;;;;;;;13.35;6.05;;;13.10;88.70;;;;;;5024328;28;20045;-51
2021/10/17 12:45:51;;;;;;;13.70;5.80;;;13.10;88.20;;;;;;5028654;28;20045;-49
2021/10/17 12:48:21;;;;;;;14.05;6.30;;;13.10;88.50;;;;;;5028927;28;20397;-53
2021/10/17 12:50:47;;;;;;;15.63;5.55;;;13.10;88.40;;;;;;5028127;28;20498;-53
2021/10/17 12:53:12;;;;;;;11.00;6.13;;;13.20;88.20;;;;;;5030042;28;20091;-53
2021/10/17 12:55:40;;;;;;;15.73;5.95;;;13.20;88.20;;;;;;5027077;28;20080;-51
2021/10/17 12:58:13;;;;;;;17.40;6.40;;;13.20;88.30;;;;;;5028332;28;20037;-53
2021/10/17 13:00:43;;;;;;;12.20;6.20;;;13.30;88.60;;;;;;5028471;28;20124;-50
2021/10/17 13:03:17;;;;;;;12.00;5.90;;;13.30;88.80;;;;;;5029656;28;20034;-52
2021/10/17 13:05:48;;;;;;;10.43;5.97;;;13.30;87.70;;;;;;5026357;28;20120;-50